Johannesburg, South Africa
Current Conditions -  °F | °C
As of 7:30 AM on Saturday 20 Dec 2014 (Local Time) from FAOR Reporting Station
Broken Clouds Broken Clouds  
Wind Chill: 64°   Ceiling: 500
Heat Index: 64°   Visibility: 6mi
Dew Point: 61°   Wind: 12mph
Humidity: 88%   Direction: 10°N
Pressure: 30.21"   Gusts: NA
Location:  26.19°S, 28.04°E
Report Text: FAOR 200530Z 01010KT 9000 BKN005 18/16 Q1023 BECMG BKN010
Loading
Personal Weather Stations






























Interactive Weather Map New forecast layout! Learn more

10-Day Weather Forecast

Advertisements
Track Severe Weather on mobile